sensor_id;sensor_type;location;lat;lon;timestamp;P1;durP1;ratioP1;P2;durP2;ratioP2
3771;SDS011;1901;48.172;12.824;2023-05-07T00:00:58;9.63;;;8.67;;
3771;SDS011;1901;48.172;12.824;2023-05-07T00:03:25;9.93;;;8.67;;
3771;SDS011;1901;48.172;12.824;2023-05-07T00:05:52;9.93;;;8.07;;
3771;SDS011;1901;48.172;12.824;2023-05-07T00:08:20;9.80;;;8.30;;
3771;SDS011;1901;48.172;12.824;2023-05-07T00:10:47;14.10;;;9.30;;
3771;SDS011;1901;48.172;12.824;2023-05-07T00:13:14;11.00;;;9.47;;
3771;SDS011;1901;48.172;12.824;2023-05-07T00:15:42;9.77;;;7.70;;
3771;SDS011;1901;48.172;12.824;2023-05-07T00:18:09;10.30;;;8.50;;
3771;SDS011;1901;48.172;12.824;2023-05-07T00:20:36;23.43;;;8.63;;
3771;SDS011;1901;48.172;12.824;2023-05-07T00:23:03;11.83;;;7.77;;
3771;SDS011;1901;48.172;12.824;2023-05-07T00:25:30;8.37;;;7.00;;
3771;SDS011;1901;48.172;12.824;2023-05-07T00:27:58;8.37;;;7.57;;
3771;SDS011;1901;48.172;12.824;2023-05-07T00:30:28;7.37;;;6.67;;
3771;SDS011;1901;48.172;12.824;2023-05-07T00:32:57;7.93;;;6.47;;
3771;SDS011;1901;48.172;12.824;2023-05-07T00:35:24;7.00;;;6.30;;
3771;SDS011;1901;48.172;12.824;2023-05-07T00:37:51;6.00;;;5.40;;
3771;SDS011;1901;48.172;12.824;2023-05-07T00:40:18;7.43;;;5.80;;
3771;SDS011;1901;48.172;12.824;2023-05-07T00:42:45;5.50;;;5.00;;
3771;SDS011;1901;48.172;12.824;2023-05-07T00:45:14;7.80;;;6.17;;
3771;SDS011;1901;48.172;12.824;2023-05-07T00:47:41;9.63;;;6.70;;
3771;SDS011;1901;48.172;12.824;2023-05-07T00:50:10;7.67;;;5.70;;
3771;SDS011;1901;48.172;12.824;2023-05-07T00:52:37;6.67;;;6.07;;
3771;SDS011;1901;48.172;12.824;2023-05-07T00:55:05;7.97;;;6.60;;
3771;SDS011;1901;48.172;12.824;2023-05-07T00:57:33;6.50;;;5.80;;
3771;SDS011;1901;48.172;12.824;2023-05-07T01:00:03;9.40;;;6.07;;
3771;SDS011;1901;48.172;12.824;2023-05-07T01:02:30;6.83;;;5.93;;
3771;SDS011;1901;48.172;12.824;2023-05-07T01:04:57;9.90;;;6.63;;
3771;SDS011;1901;48.172;12.824;2023-05-07T01:07:26;9.00;;;8.10;;
3771;SDS011;1901;48.172;12.824;2023-05-07T01:09:53;10.10;;;9.07;;
3771;SDS011;1901;48.172;12.824;2023-05-07T01:12:20;15.63;;;9.47;;
3771;SDS011;1901;48.172;12.824;2023-05-07T01:14:48;16.30;;;7.50;;
3771;SDS011;1901;48.172;12.824;2023-05-07T01:17:15;10.63;;;7.80;;
3771;SDS011;1901;48.172;12.824;2023-05-07T01:19:42;10.30;;;6.10;;
3771;SDS011;1901;48.172;12.824;2023-05-07T01:22:10;7.57;;;6.80;;
3771;SDS011;1901;48.172;12.824;2023-05-07T01:24:39;7.37;;;6.23;;
3771;SDS011;1901;48.172;12.824;2023-05-07T01:27:06;8.27;;;7.23;;
3771;SDS011;1901;48.172;12.824;2023-05-07T01:29:33;7.70;;;7.00;;
3771;SDS011;1901;48.172;12.824;2023-05-07T01:32:00;8.30;;;6.90;;
3771;SDS011;1901;48.172;12.824;2023-05-07T01:34:28;7.93;;;7.13;;
3771;SDS011;1901;48.172;12.824;2023-05-07T01:36:56;9.50;;;7.30;;
3771;SDS011;1901;48.172;12.824;2023-05-07T01:39:25;11.87;;;7.87;;
3771;SDS011;1901;48.172;12.824;2023-05-07T01:41:54;10.07;;;7.63;;
3771;SDS011;1901;48.172;12.824;2023-05-07T01:44:21;9.67;;;7.57;;
3771;SDS011;1901;48.172;12.824;2023-05-07T01:46:49;10.83;;;8.13;;
3771;SDS011;1901;48.172;12.824;2023-05-07T01:49:16;9.57;;;7.67;;
3771;SDS011;1901;48.172;12.824;2023-05-07T01:51:43;8.03;;;7.33;;
3771;SDS011;1901;48.172;12.824;2023-05-07T01:54:10;16.63;;;8.20;;
3771;SDS011;1901;48.172;12.824;2023-05-07T01:56:37;8.87;;;7.60;;
3771;SDS011;1901;48.172;12.824;2023-05-07T01:59:06;10.47;;;8.67;;
3771;SDS011;1901;48.172;12.824;2023-05-07T02:01:33;18.73;;;7.50;;
3771;SDS011;1901;48.172;12.824;2023-05-07T02:04:00;8.13;;;7.40;;
3771;SDS011;1901;48.172;12.824;2023-05-07T02:06:27;9.93;;;8.17;;
3771;SDS011;1901;48.172;12.824;2023-05-07T02:08:55;8.17;;;7.37;;
3771;SDS011;1901;48.172;12.824;2023-05-07T02:11:22;8.87;;;7.97;;
3771;SDS011;1901;48.172;12.824;2023-05-07T02:13:50;11.00;;;8.87;;
3771;SDS011;1901;48.172;12.824;2023-05-07T02:16:19;10.23;;;9.23;;
3771;SDS011;1901;48.172;12.824;2023-05-07T02:18:47;9.53;;;8.63;;
3771;SDS011;1901;48.172;12.824;2023-05-07T02:21:14;10.03;;;9.13;;
3771;SDS011;1901;48.172;12.824;2023-05-07T02:23:41;11.60;;;9.10;;
3771;SDS011;1901;48.172;12.824;2023-05-07T02:26:08;10.93;;;9.43;;
3771;SDS011;1901;48.172;12.824;2023-05-07T02:28:36;10.73;;;9.67;;
3771;SDS011;1901;48.172;12.824;2023-05-07T02:31:03;10.00;;;8.87;;
3771;SDS011;1901;48.172;12.824;2023-05-07T02:33:31;10.30;;;9.20;;
3771;SDS011;1901;48.172;12.824;2023-05-07T02:36:04;10.03;;;9.00;;
3771;SDS011;1901;48.172;12.824;2023-05-07T02:38:32;9.60;;;8.30;;
3771;SDS011;1901;48.172;12.824;2023-05-07T02:40:59;13.03;;;10.57;;
3771;SDS011;1901;48.172;12.824;2023-05-07T02:43:26;9.93;;;8.83;;
3771;SDS011;1901;48.172;12.824;2023-05-07T02:45:59;11.07;;;8.93;;
3771;SDS011;1901;48.172;12.824;2023-05-07T02:48:27;12.60;;;10.17;;
3771;SDS011;1901;48.172;12.824;2023-05-07T02:50:56;13.97;;;10.53;;
3771;SDS011;1901;48.172;12.824;2023-05-07T02:53:23;10.70;;;9.67;;
3771;SDS011;1901;48.172;12.824;2023-05-07T02:55:51;13.80;;;8.50;;
3771;SDS011;1901;48.172;12.824;2023-05-07T02:58:18;11.60;;;8.93;;
3771;SDS011;1901;48.172;12.824;2023-05-07T03:00:45;11.03;;;9.87;;
3771;SDS011;1901;48.172;12.824;2023-05-07T03:03:13;11.17;;;9.60;;
3771;SDS011;1901;48.172;12.824;2023-05-07T03:05:40;14.07;;;10.50;;
3771;SDS011;1901;48.172;12.824;2023-05-07T03:08:08;11.67;;;10.47;;
3771;SDS011;1901;48.172;12.824;2023-05-07T03:10:36;13.83;;;9.63;;
3771;SDS011;1901;48.172;12.824;2023-05-07T03:13:03;11.60;;;10.37;;
3771;SDS011;1901;48.172;12.824;2023-05-07T03:15:31;12.93;;;10.30;;
3771;SDS011;1901;48.172;12.824;2023-05-07T03:17:58;11.30;;;10.20;;
3771;SDS011;1901;48.172;12.824;2023-05-07T03:20:25;10.47;;;9.33;;
3771;SDS011;1901;48.172;12.824;2023-05-07T03:22:53;10.00;;;9.00;;
3771;SDS011;1901;48.172;12.824;2023-05-07T03:25:21;12.23;;;8.30;;
3771;SDS011;1901;48.172;12.824;2023-05-07T03:27:49;10.73;;;9.50;;
3771;SDS011;1901;48.172;12.824;2023-05-07T03:30:16;16.20;;;10.37;;
3771;SDS011;1901;48.172;12.824;2023-05-07T03:32:43;11.00;;;9.23;;
3771;SDS011;1901;48.172;12.824;2023-05-07T03:35:10;10.63;;;9.00;;
3771;SDS011;1901;48.172;12.824;2023-05-07T03:37:37;9.80;;;8.80;;
3771;SDS011;1901;48.172;12.824;2023-05-07T03:40:05;9.83;;;8.37;;
3771;SDS011;1901;48.172;12.824;2023-05-07T03:42:34;13.07;;;9.70;;
3771;SDS011;1901;48.172;12.824;2023-05-07T03:45:01;16.23;;;10.03;;
3771;SDS011;1901;48.172;12.824;2023-05-07T03:47:28;12.90;;;10.00;;
3771;SDS011;1901;48.172;12.824;2023-05-07T03:49:55;13.90;;;10.57;;
3771;SDS011;1901;48.172;12.824;2023-05-07T03:52:22;12.20;;;11.00;;
3771;SDS011;1901;48.172;12.824;2023-05-07T03:54:51;15.63;;;9.27;;
3771;SDS011;1901;48.172;12.824;2023-05-07T03:57:18;11.77;;;9.77;;
3771;SDS011;1901;48.172;12.824;2023-05-07T03:59:46;12.70;;;9.93;;
3771;SDS011;1901;48.172;12.824;2023-05-07T04:02:13;15.53;;;9.30;;
3771;SDS011;1901;48.172;12.824;2023-05-07T04:04:40;13.43;;;10.10;;
3771;SDS011;1901;48.172;12.824;2023-05-07T04:07:07;11.53;;;9.27;;
3771;SDS011;1901;48.172;12.824;2023-05-07T04:09:35;13.67;;;9.23;;
3771;SDS011;1901;48.172;12.824;2023-05-07T04:12:02;10.67;;;9.50;;
3771;SDS011;1901;48.172;12.824;2023-05-07T04:14:29;12.87;;;9.53;;
3771;SDS011;1901;48.172;12.824;2023-05-07T04:16:58;13.17;;;9.80;;
3771;SDS011;1901;48.172;12.824;2023-05-07T04:19:25;10.20;;;8.90;;
3771;SDS011;1901;48.172;12.824;2023-05-07T04:21:52;10.10;;;9.10;;
3771;SDS011;1901;48.172;12.824;2023-05-07T04:24:19;9.60;;;8.70;;
3771;SDS011;1901;48.172;12.824;2023-05-07T04:26:46;12.60;;;9.63;;
3771;SDS011;1901;48.172;12.824;2023-05-07T04:29:13;11.43;;;10.17;;
3771;SDS011;1901;48.172;12.824;2023-05-07T04:31:41;11.67;;;9.00;;
3771;SDS011;1901;48.172;12.824;2023-05-07T04:34:10;11.73;;;9.30;;
3771;SDS011;1901;48.172;12.824;2023-05-07T04:36:37;11.20;;;9.40;;
3771;SDS011;1901;48.172;12.824;2023-05-07T04:39:05;14.40;;;9.70;;
3771;SDS011;1901;48.172;12.824;2023-05-07T04:41:32;9.27;;;8.37;;
3771;SDS011;1901;48.172;12.824;2023-05-07T04:44:01;11.03;;;9.63;;
3771;SDS011;1901;48.172;12.824;2023-05-07T04:46:29;11.20;;;8.80;;
3771;SDS011;1901;48.172;12.824;2023-05-07T04:48:56;10.70;;;8.43;;
3771;SDS011;1901;48.172;12.824;2023-05-07T04:51:25;12.60;;;9.10;;
3771;SDS011;1901;48.172;12.824;2023-05-07T04:53:53;9.87;;;8.93;;
3771;SDS011;1901;48.172;12.824;2023-05-07T04:56:20;8.73;;;7.83;;
3771;SDS011;1901;48.172;12.824;2023-05-07T04:58:47;8.57;;;7.77;;
3771;SDS011;1901;48.172;12.824;2023-05-07T05:01:15;8.10;;;7.30;;
3771;SDS011;1901;48.172;12.824;2023-05-07T05:03:42;7.87;;;7.10;;
3771;SDS011;1901;48.172;12.824;2023-05-07T05:06:09;8.13;;;7.33;;
3771;SDS011;1901;48.172;12.824;2023-05-07T05:08:37;7.63;;;6.93;;
3771;SDS011;1901;48.172;12.824;2023-05-07T05:11:04;8.23;;;7.07;;
3771;SDS011;1901;48.172;12.824;2023-05-07T05:13:31;7.90;;;7.30;;
3771;SDS011;1901;48.172;12.824;2023-05-07T05:15:59;7.70;;;6.50;;
3771;SDS011;1901;48.172;12.824;2023-05-07T05:18:26;9.97;;;6.23;;
3771;SDS011;1901;48.172;12.824;2023-05-07T05:20:53;7.07;;;6.47;;
3771;SDS011;1901;48.172;12.824;2023-05-07T05:23:20;7.37;;;6.57;;
3771;SDS011;1901;48.172;12.824;2023-05-07T05:25:48;6.67;;;6.07;;
3771;SDS011;1901;48.172;12.824;2023-05-07T05:28:15;7.07;;;6.47;;
3771;SDS011;1901;48.172;12.824;2023-05-07T05:30:42;7.10;;;6.43;;
3771;SDS011;1901;48.172;12.824;2023-05-07T05:33:10;8.40;;;5.97;;
3771;SDS011;1901;48.172;12.824;2023-05-07T05:35:37;8.10;;;6.57;;
3771;SDS011;1901;48.172;12.824;2023-05-07T05:38:04;6.60;;;5.87;;
3771;SDS011;1901;48.172;12.824;2023-05-07T05:40:31;6.50;;;6.00;;
3771;SDS011;1901;48.172;12.824;2023-05-07T05:42:59;6.80;;;6.30;;
3771;SDS011;1901;48.172;12.824;2023-05-07T05:45:26;6.97;;;6.37;;
3771;SDS011;1901;48.172;12.824;2023-05-07T05:47:55;7.60;;;6.93;;
3771;SDS011;1901;48.172;12.824;2023-05-07T05:50:22;7.03;;;6.33;;
3771;SDS011;1901;48.172;12.824;2023-05-07T05:52:49;6.67;;;6.07;;
3771;SDS011;1901;48.172;12.824;2023-05-07T05:55:17;8.17;;;6.13;;
3771;SDS011;1901;48.172;12.824;2023-05-07T05:57:44;6.83;;;6.23;;
3771;SDS011;1901;48.172;12.824;2023-05-07T06:00:13;7.17;;;6.47;;
3771;SDS011;1901;48.172;12.824;2023-05-07T06:02:41;8.63;;;6.27;;
3771;SDS011;1901;48.172;12.824;2023-05-07T06:05:08;5.90;;;5.40;;
3771;SDS011;1901;48.172;12.824;2023-05-07T06:07:35;6.03;;;5.53;;
3771;SDS011;1901;48.172;12.824;2023-05-07T06:10:03;6.23;;;5.73;;
3771;SDS011;1901;48.172;12.824;2023-05-07T06:12:30;6.87;;;6.27;;
3771;SDS011;1901;48.172;12.824;2023-05-07T06:14:57;6.17;;;5.27;;
3771;SDS011;1901;48.172;12.824;2023-05-07T06:17:26;6.33;;;5.73;;
3771;SDS011;1901;48.172;12.824;2023-05-07T06:19:53;5.93;;;5.47;;
3771;SDS011;1901;48.172;12.824;2023-05-07T06:22:20;6.13;;;5.40;;
3771;SDS011;1901;48.172;12.824;2023-05-07T06:24:47;7.10;;;5.63;;
3771;SDS011;1901;48.172;12.824;2023-05-07T06:27:14;5.43;;;5.03;;
3771;SDS011;1901;48.172;12.824;2023-05-07T06:29:41;5.23;;;4.73;;
3771;SDS011;1901;48.172;12.824;2023-05-07T06:32:08;6.60;;;5.13;;
3771;SDS011;1901;48.172;12.824;2023-05-07T06:34:37;6.30;;;5.70;;
3771;SDS011;1901;48.172;12.824;2023-05-07T06:37:04;5.47;;;4.97;;
3771;SDS011;1901;48.172;12.824;2023-05-07T06:39:31;4.20;;;3.90;;
3771;SDS011;1901;48.172;12.824;2023-05-07T06:41:59;4.40;;;4.00;;
3771;SDS011;1901;48.172;12.824;2023-05-07T06:44:26;5.37;;;4.20;;
3771;SDS011;1901;48.172;12.824;2023-05-07T06:46:53;3.77;;;3.47;;
3771;SDS011;1901;48.172;12.824;2023-05-07T06:49:20;4.70;;;4.20;;
3771;SDS011;1901;48.172;12.824;2023-05-07T06:51:49;7.73;;;4.57;;
3771;SDS011;1901;48.172;12.824;2023-05-07T06:54:16;4.37;;;3.70;;
3771;SDS011;1901;48.172;12.824;2023-05-07T06:56:43;5.20;;;4.40;;
3771;SDS011;1901;48.172;12.824;2023-05-07T06:59:10;5.33;;;3.77;;
3771;SDS011;1901;48.172;12.824;2023-05-07T07:01:37;5.83;;;3.37;;
3771;SDS011;1901;48.172;12.824;2023-05-07T07:04:04;4.17;;;3.50;;
3771;SDS011;1901;48.172;12.824;2023-05-07T07:06:31;4.20;;;3.80;;
3771;SDS011;1901;48.172;12.824;2023-05-07T07:09:00;3.73;;;3.43;;
3771;SDS011;1901;48.172;12.824;2023-05-07T07:11:27;6.83;;;3.90;;
3771;SDS011;1901;48.172;12.824;2023-05-07T07:13:54;3.90;;;3.60;;
3771;SDS011;1901;48.172;12.824;2023-05-07T07:16:21;3.83;;;3.53;;
3771;SDS011;1901;48.172;12.824;2023-05-07T07:18:48;3.83;;;3.50;;
3771;SDS011;1901;48.172;12.824;2023-05-07T07:21:15;3.70;;;3.10;;
3771;SDS011;1901;48.172;12.824;2023-05-07T07:23:42;6.17;;;3.70;;
3771;SDS011;1901;48.172;12.824;2023-05-07T07:26:11;3.50;;;3.20;;
3771;SDS011;1901;48.172;12.824;2023-05-07T07:28:44;3.83;;;3.53;;
3771;SDS011;1901;48.172;12.824;2023-05-07T07:31:11;4.97;;;4.00;;
3771;SDS011;1901;48.172;12.824;2023-05-07T07:33:39;4.57;;;4.17;;
3771;SDS011;1901;48.172;12.824;2023-05-07T07:36:06;4.90;;;4.20;;
3771;SDS011;1901;48.172;12.824;2023-05-07T07:38:33;5.93;;;5.30;;
3771;SDS011;1901;48.172;12.824;2023-05-07T07:41:01;7.30;;;5.60;;
3771;SDS011;1901;48.172;12.824;2023-05-07T07:43:29;5.77;;;5.00;;
3771;SDS011;1901;48.172;12.824;2023-05-07T07:45:56;5.93;;;5.30;;
3771;SDS011;1901;48.172;12.824;2023-05-07T07:48:23;6.97;;;5.43;;
3771;SDS011;1901;48.172;12.824;2023-05-07T07:50:50;6.40;;;5.47;;
3771;SDS011;1901;48.172;12.824;2023-05-07T07:53:18;5.63;;;5.10;;
3771;SDS011;1901;48.172;12.824;2023-05-07T07:55:45;5.97;;;5.07;;
3771;SDS011;1901;48.172;12.824;2023-05-07T07:58:12;5.63;;;5.23;;
3771;SDS011;1901;48.172;12.824;2023-05-07T08:00:41;5.43;;;4.93;;
3771;SDS011;1901;48.172;12.824;2023-05-07T08:03:09;6.10;;;5.60;;
3771;SDS011;1901;48.172;12.824;2023-05-07T08:05:36;6.57;;;4.90;;
3771;SDS011;1901;48.172;12.824;2023-05-07T08:08:04;5.63;;;5.13;;
3771;SDS011;1901;48.172;12.824;2023-05-07T08:10:31;5.60;;;5.10;;
3771;SDS011;1901;48.172;12.824;2023-05-07T08:13:00;5.80;;;5.30;;
3771;SDS011;1901;48.172;12.824;2023-05-07T08:15:28;4.97;;;4.57;;
3771;SDS011;1901;48.172;12.824;2023-05-07T08:17:57;5.53;;;5.13;;
3771;SDS011;1901;48.172;12.824;2023-05-07T08:20:25;5.20;;;4.70;;
3771;SDS011;1901;48.172;12.824;2023-05-07T08:22:53;4.97;;;4.50;;
3771;SDS011;1901;48.172;12.824;2023-05-07T08:25:20;5.63;;;5.13;;
3771;SDS011;1901;48.172;12.824;2023-05-07T08:27:47;6.23;;;5.73;;
3771;SDS011;1901;48.172;12.824;2023-05-07T08:30:14;6.47;;;5.63;;
3771;SDS011;1901;48.172;12.824;2023-05-07T08:32:41;5.97;;;5.37;;
3771;SDS011;1901;48.172;12.824;2023-05-07T08:35:10;9.60;;;8.60;;
3771;SDS011;1901;48.172;12.824;2023-05-07T08:37:37;5.50;;;4.80;;
3771;SDS011;1901;48.172;12.824;2023-05-07T08:40:05;5.03;;;4.63;;
3771;SDS011;1901;48.172;12.824;2023-05-07T08:42:33;6.73;;;5.40;;
3771;SDS011;1901;48.172;12.824;2023-05-07T08:45:02;6.83;;;5.63;;
3771;SDS011;1901;48.172;12.824;2023-05-07T08:47:33;6.63;;;5.80;;
3771;SDS011;1901;48.172;12.824;2023-05-07T08:50:01;6.03;;;5.27;;
3771;SDS011;1901;48.172;12.824;2023-05-07T08:52:29;5.40;;;4.90;;
3771;SDS011;1901;48.172;12.824;2023-05-07T08:54:57;5.97;;;5.47;;
3771;SDS011;1901;48.172;12.824;2023-05-07T08:57:24;5.63;;;5.03;;
3771;SDS011;1901;48.172;12.824;2023-05-07T08:59:51;5.07;;;4.63;;
3771;SDS011;1901;48.172;12.824;2023-05-07T09:02:18;6.33;;;5.60;;
3771;SDS011;1901;48.172;12.824;2023-05-07T09:04:45;6.77;;;6.07;;
3771;SDS011;1901;48.172;12.824;2023-05-07T09:07:12;5.23;;;4.83;;
3771;SDS011;1901;48.172;12.824;2023-05-07T09:09:41;5.53;;;5.00;;
3771;SDS011;1901;48.172;12.824;2023-05-07T09:12:08;5.50;;;5.00;;
3771;SDS011;1901;48.172;12.824;2023-05-07T09:14:35;6.80;;;5.20;;
3771;SDS011;1901;48.172;12.824;2023-05-07T09:17:02;5.47;;;4.80;;
3771;SDS011;1901;48.172;12.824;2023-05-07T09:19:30;4.93;;;4.33;;
3771;SDS011;1901;48.172;12.824;2023-05-07T09:22:00;6.33;;;4.87;;
3771;SDS011;1901;48.172;12.824;2023-05-07T09:24:28;8.10;;;3.87;;
3771;SDS011;1901;48.172;12.824;2023-05-07T09:27:00;5.00;;;4.33;;
3771;SDS011;1901;48.172;12.824;2023-05-07T09:29:27;4.47;;;4.17;;
3771;SDS011;1901;48.172;12.824;2023-05-07T09:31:55;4.13;;;3.80;;
3771;SDS011;1901;48.172;12.824;2023-05-07T09:34:22;4.80;;;4.40;;
3771;SDS011;1901;48.172;12.824;2023-05-07T09:36:49;4.90;;;4.50;;
3771;SDS011;1901;48.172;12.824;2023-05-07T09:39:16;5.97;;;5.37;;
3771;SDS011;1901;48.172;12.824;2023-05-07T09:41:43;4.63;;;4.23;;
3771;SDS011;1901;48.172;12.824;2023-05-07T09:44:12;4.63;;;4.23;;
3771;SDS011;1901;48.172;12.824;2023-05-07T09:46:39;4.07;;;3.73;;
3771;SDS011;1901;48.172;12.824;2023-05-07T09:49:09;4.20;;;3.80;;
3771;SDS011;1901;48.172;12.824;2023-05-07T09:51:41;10.17;;;3.70;;
3771;SDS011;1901;48.172;12.824;2023-05-07T09:54:10;5.30;;;4.80;;
3771;SDS011;1901;48.172;12.824;2023-05-07T09:56:37;4.43;;;3.83;;
3771;SDS011;1901;48.172;12.824;2023-05-07T09:59:07;7.93;;;4.27;;
3771;SDS011;1901;48.172;12.824;2023-05-07T10:01:37;4.33;;;3.93;;
3771;SDS011;1901;48.172;12.824;2023-05-07T10:04:04;13.30;;;10.03;;
3771;SDS011;1901;48.172;12.824;2023-05-07T10:06:33;4.70;;;4.30;;
3771;SDS011;1901;48.172;12.824;2023-05-07T10:09:01;4.23;;;3.70;;
3771;SDS011;1901;48.172;12.824;2023-05-07T10:11:30;4.27;;;3.93;;
3771;SDS011;1901;48.172;12.824;2023-05-07T10:13:59;5.80;;;4.47;;
3771;SDS011;1901;48.172;12.824;2023-05-07T10:16:27;6.63;;;4.37;;
3771;SDS011;1901;48.172;12.824;2023-05-07T10:18:55;13.27;;;4.47;;
3771;SDS011;1901;48.172;12.824;2023-05-07T10:21:23;7.20;;;4.60;;
3771;SDS011;1901;48.172;12.824;2023-05-07T10:23:51;4.53;;;4.10;;
3771;SDS011;1901;48.172;12.824;2023-05-07T10:26:20;5.87;;;4.30;;
3771;SDS011;1901;48.172;12.824;2023-05-07T10:28:49;4.87;;;4.47;;
3771;SDS011;1901;48.172;12.824;2023-05-07T10:31:22;3.90;;;3.60;;
3771;SDS011;1901;48.172;12.824;2023-05-07T10:33:53;4.67;;;4.27;;
3771;SDS011;1901;48.172;12.824;2023-05-07T10:36:22;4.47;;;3.90;;
3771;SDS011;1901;48.172;12.824;2023-05-07T10:38:51;4.90;;;4.13;;
3771;SDS011;1901;48.172;12.824;2023-05-07T10:41:18;5.50;;;4.50;;
3771;SDS011;1901;48.172;12.824;2023-05-07T10:43:46;4.43;;;4.03;;
3771;SDS011;1901;48.172;12.824;2023-05-07T10:46:14;4.70;;;4.30;;
3771;SDS011;1901;48.172;12.824;2023-05-07T10:51:28;4.83;;;4.40;;
3771;SDS011;1901;48.172;12.824;2023-05-07T10:56:39;4.37;;;4.00;;
3771;SDS011;1901;48.172;12.824;2023-05-07T11:01:56;4.20;;;3.80;;
3771;SDS011;1901;48.172;12.824;2023-05-07T11:04:24;11.13;;;4.40;;
3771;SDS011;1901;48.172;12.824;2023-05-07T11:09:55;5.30;;;4.80;;
3771;SDS011;1901;48.172;12.824;2023-05-07T11:15:06;4.33;;;3.93;;
3771;SDS011;1901;48.172;12.824;2023-05-07T11:17:34;5.30;;;3.90;;
3771;SDS011;1901;48.172;12.824;2023-05-07T11:20:02;4.97;;;4.30;;
3771;SDS011;1901;48.172;12.824;2023-05-07T11:22:36;5.93;;;4.80;;
3771;SDS011;1901;48.172;12.824;2023-05-07T11:25:06;3.37;;;3.07;;
3771;SDS011;1901;48.172;12.824;2023-05-07T11:27:33;4.03;;;3.60;;
3771;SDS011;1901;48.172;12.824;2023-05-07T11:30:00;4.27;;;3.87;;
3771;SDS011;1901;48.172;12.824;2023-05-07T11:32:28;3.20;;;2.90;;
3771;SDS011;1901;48.172;12.824;2023-05-07T11:34:55;3.47;;;3.17;;
3771;SDS011;1901;48.172;12.824;2023-05-07T11:37:23;3.43;;;3.10;;
3771;SDS011;1901;48.172;12.824;2023-05-07T11:39:52;3.77;;;3.43;;
3771;SDS011;1901;48.172;12.824;2023-05-07T11:42:30;3.40;;;3.10;;
3771;SDS011;1901;48.172;12.824;2023-05-07T11:44:58;2.70;;;2.50;;
3771;SDS011;1901;48.172;12.824;2023-05-07T11:47:25;4.30;;;3.90;;
3771;SDS011;1901;48.172;12.824;2023-05-07T11:49:53;4.20;;;3.90;;
3771;SDS011;1901;48.172;12.824;2023-05-07T11:52:20;2.90;;;2.70;;
3771;SDS011;1901;48.172;12.824;2023-05-07T11:54:50;3.30;;;3.00;;
3771;SDS011;1901;48.172;12.824;2023-05-07T11:57:18;3.47;;;3.17;;
3771;SDS011;1901;48.172;12.824;2023-05-07T11:59:46;3.87;;;3.57;;
3771;SDS011;1901;48.172;12.824;2023-05-07T12:02:14;3.07;;;2.77;;
3771;SDS011;1901;48.172;12.824;2023-05-07T12:04:41;3.20;;;2.90;;
3771;SDS011;1901;48.172;12.824;2023-05-07T12:07:10;3.17;;;2.77;;
3771;SDS011;1901;48.172;12.824;2023-05-07T12:09:38;3.20;;;2.90;;
3771;SDS011;1901;48.172;12.824;2023-05-07T12:12:05;3.90;;;3.60;;
3771;SDS011;1901;48.172;12.824;2023-05-07T12:14:32;3.00;;;2.70;;
3771;SDS011;1901;48.172;12.824;2023-05-07T12:17:01;3.23;;;2.77;;
3771;SDS011;1901;48.172;12.824;2023-05-07T12:19:29;4.17;;;2.80;;
3771;SDS011;1901;48.172;12.824;2023-05-07T12:21:57;4.17;;;3.20;;
3771;SDS011;1901;48.172;12.824;2023-05-07T12:24:24;4.80;;;3.90;;
3771;SDS011;1901;48.172;12.824;2023-05-07T12:26:51;3.90;;;3.50;;
3771;SDS011;1901;48.172;12.824;2023-05-07T12:29:21;3.73;;;3.43;;
3771;SDS011;1901;48.172;12.824;2023-05-07T12:31:49;3.57;;;3.20;;
3771;SDS011;1901;48.172;12.824;2023-05-07T12:34:17;7.50;;;3.80;;
3771;SDS011;1901;48.172;12.824;2023-05-07T12:36:44;3.20;;;3.00;;
3771;SDS011;1901;48.172;12.824;2023-05-07T12:39:14;3.13;;;2.83;;
3771;SDS011;1901;48.172;12.824;2023-05-07T12:41:54;6.63;;;2.67;;
3771;SDS011;1901;48.172;12.824;2023-05-07T12:44:21;9.93;;;3.63;;
3771;SDS011;1901;48.172;12.824;2023-05-07T12:46:49;4.77;;;2.77;;
3771;SDS011;1901;48.172;12.824;2023-05-07T12:49:18;5.43;;;3.17;;
3771;SDS011;1901;48.172;12.824;2023-05-07T12:51:46;3.33;;;3.03;;
3771;SDS011;1901;48.172;12.824;2023-05-07T12:54:13;4.53;;;3.63;;
3771;SDS011;1901;48.172;12.824;2023-05-07T12:56:40;4.93;;;3.10;;
3771;SDS011;1901;48.172;12.824;2023-05-07T12:59:07;3.30;;;3.00;;
3771;SDS011;1901;48.172;12.824;2023-05-07T13:01:34;6.67;;;3.30;;
3771;SDS011;1901;48.172;12.824;2023-05-07T13:04:02;3.30;;;2.53;;
3771;SDS011;1901;48.172;12.824;2023-05-07T13:06:32;2.87;;;2.60;;
3771;SDS011;1901;48.172;12.824;2023-05-07T13:08:59;5.77;;;2.97;;
3771;SDS011;1901;48.172;12.824;2023-05-07T13:11:26;2.87;;;2.67;;
3771;SDS011;1901;48.172;12.824;2023-05-07T13:13:53;2.93;;;2.40;;
3771;SDS011;1901;48.172;12.824;2023-05-07T13:16:20;2.73;;;2.30;;
3771;SDS011;1901;48.172;12.824;2023-05-07T13:18:47;3.50;;;3.20;;
3771;SDS011;1901;48.172;12.824;2023-05-07T13:21:14;5.83;;;3.20;;
3771;SDS011;1901;48.172;12.824;2023-05-07T13:23:42;4.53;;;2.70;;
3771;SDS011;1901;48.172;12.824;2023-05-07T13:26:10;3.87;;;3.30;;
3771;SDS011;1901;48.172;12.824;2023-05-07T13:28:37;2.70;;;2.50;;
3771;SDS011;1901;48.172;12.824;2023-05-07T13:31:04;8.13;;;2.60;;
3771;SDS011;1901;48.172;12.824;2023-05-07T13:33:31;3.10;;;2.80;;
3771;SDS011;1901;48.172;12.824;2023-05-07T13:35:58;3.83;;;2.60;;
3771;SDS011;1901;48.172;12.824;2023-05-07T13:38:25;3.97;;;3.37;;
3771;SDS011;1901;48.172;12.824;2023-05-07T13:40:54;3.53;;;3.03;;
3771;SDS011;1901;48.172;12.824;2023-05-07T13:43:21;3.10;;;2.80;;
3771;SDS011;1901;48.172;12.824;2023-05-07T13:45:48;3.40;;;2.60;;
3771;SDS011;1901;48.172;12.824;2023-05-07T13:48:15;3.40;;;3.10;;
3771;SDS011;1901;48.172;12.824;2023-05-07T13:50:42;3.10;;;2.80;;
3771;SDS011;1901;48.172;12.824;2023-05-07T13:53:09;4.60;;;2.80;;
3771;SDS011;1901;48.172;12.824;2023-05-07T13:55:36;3.50;;;2.50;;
3771;SDS011;1901;48.172;12.824;2023-05-07T13:58:05;3.23;;;2.90;;
3771;SDS011;1901;48.172;12.824;2023-05-07T14:00:32;3.70;;;3.40;;
3771;SDS011;1901;48.172;12.824;2023-05-07T14:02:59;6.13;;;3.40;;
3771;SDS011;1901;48.172;12.824;2023-05-07T14:05:26;4.40;;;2.60;;
3771;SDS011;1901;48.172;12.824;2023-05-07T14:07:53;4.00;;;3.60;;
3771;SDS011;1901;48.172;12.824;2023-05-07T14:10:21;8.90;;;7.63;;
3771;SDS011;1901;48.172;12.824;2023-05-07T14:12:48;4.73;;;3.17;;
3771;SDS011;1901;48.172;12.824;2023-05-07T14:15:17;3.10;;;2.90;;
3771;SDS011;1901;48.172;12.824;2023-05-07T14:17:44;4.23;;;2.37;;
3771;SDS011;1901;48.172;12.824;2023-05-07T14:20:12;3.63;;;3.17;;
3771;SDS011;1901;48.172;12.824;2023-05-07T14:22:39;4.10;;;2.43;;
3771;SDS011;1901;48.172;12.824;2023-05-07T14:25:06;4.90;;;4.50;;
3771;SDS011;1901;48.172;12.824;2023-05-07T14:27:34;10.23;;;6.53;;
3771;SDS011;1901;48.172;12.824;2023-05-07T14:30:01;3.90;;;2.77;;
3771;SDS011;1901;48.172;12.824;2023-05-07T14:32:30;3.77;;;3.03;;
3771;SDS011;1901;48.172;12.824;2023-05-07T14:34:57;6.23;;;3.13;;
3771;SDS011;1901;48.172;12.824;2023-05-07T14:37:24;5.53;;;4.80;;
3771;SDS011;1901;48.172;12.824;2023-05-07T14:39:51;15.43;;;9.40;;
3771;SDS011;1901;48.172;12.824;2023-05-07T14:42:18;2.37;;;2.10;;
3771;SDS011;1901;48.172;12.824;2023-05-07T14:44:45;3.23;;;2.20;;
3771;SDS011;1901;48.172;12.824;2023-05-07T14:47:13;2.30;;;2.10;;
3771;SDS011;1901;48.172;12.824;2023-05-07T14:49:42;4.87;;;3.00;;
3771;SDS011;1901;48.172;12.824;2023-05-07T14:52:09;3.23;;;2.63;;
3771;SDS011;1901;48.172;12.824;2023-05-07T14:54:36;7.77;;;3.50;;
3771;SDS011;1901;48.172;12.824;2023-05-07T14:57:04;5.67;;;3.60;;
3771;SDS011;1901;48.172;12.824;2023-05-07T14:59:31;4.00;;;3.20;;
3771;SDS011;1901;48.172;12.824;2023-05-07T15:01:59;10.07;;;6.10;;
3771;SDS011;1901;48.172;12.824;2023-05-07T15:04:26;4.13;;;3.77;;
3771;SDS011;1901;48.172;12.824;2023-05-07T15:06:54;8.60;;;4.70;;
3771;SDS011;1901;48.172;12.824;2023-05-07T15:09:21;5.37;;;3.80;;
3771;SDS011;1901;48.172;12.824;2023-05-07T15:11:48;3.90;;;3.50;;
3771;SDS011;1901;48.172;12.824;2023-05-07T15:14:15;2.47;;;2.00;;